Time;durP1;ratioP1;P1;durP2;ratioP2;P2;SDS_P1;SDS_P2;PMS_P1;PMS_P2;Temp;Humidity;BMP_temperature;BMP_pressure;BME280_temperature;BME280_humidity;BME280_pressure;Samples;Min_cycle;Max_cycle;Signal;HPM_P1;HPM_P2
2022/09/16 00:02:19;;;;;;;;;;;23.70;86.60;;;;;;4953202;28;19914;-67
2022/09/16 00:04:44;;;;;;;;;;;23.70;86.10;;;;;;4940988;29;19917;-68
2022/09/16 00:07:10;;;;;;;;;;;23.70;86.00;;;;;;4953830;28;20389;-68
2022/09/16 00:09:37;;;;;;;;;;;23.70;85.90;;;;;;4953932;28;19997;-67
2022/09/16 00:12:03;;;;;;;;;;;23.70;85.70;;;;;;4953783;28;19914;-67
2022/09/16 00:14:29;;;;;;;;;;;23.70;86.50;;;;;;4953813;28;20363;-68
2022/09/16 00:16:54;;;;;;;;;;;23.80;85.80;;;;;;4953907;28;19910;-67
2022/09/16 00:19:20;;;;;;;;;;;23.80;85.90;;;;;;4953126;28;19920;-67
2022/09/16 00:21:46;;;;;;;;;;;23.80;85.80;;;;;;4939987;28;20294;-66
2022/09/16 00:24:14;;;;;;;;;;;23.80;85.90;;;;;;4938199;28;19918;-68
2022/09/16 00:26:40;;;;;;;;;;;23.70;86.60;;;;;;4953855;28;19914;-67
2022/09/16 00:29:05;;;;;;;;;;;23.70;86.60;;;;;;4953595;28;20318;-65
2022/09/16 00:31:31;;;;;;;;;;;23.70;86.50;;;;;;4953716;28;19911;-66
2022/09/16 00:33:56;;;;;;;;;;;23.70;86.80;;;;;;4953589;28;19963;-66
2022/09/16 00:36:22;;;;;;;;;;;23.70;87.00;;;;;;4953585;28;19918;-67
2022/09/16 00:38:54;;;;;;;;;;;23.60;87.10;;;;;;4953576;28;20378;-65
2022/09/16 00:41:21;;;;;;;;;;;23.60;87.40;;;;;;4953693;28;19974;-67
2022/09/16 00:43:50;;;;;;;;;;;23.60;87.20;;;;;;4953542;28;20331;-66
2022/09/16 00:46:18;;;;;;;;;;;23.60;87.10;;;;;;4953526;28;19910;-67
2022/09/16 00:48:43;;;;;;;;;;;23.60;87.40;;;;;;4954335;28;19932;-67
2022/09/16 00:51:10;;;;;;;;;;;23.60;87.60;;;;;;4957006;28;20362;-68
2022/09/16 00:53:48;;;;;;;;;;;23.60;87.50;;;;;;4948466;28;20525;-68
2022/09/16 00:56:15;;;;;;;;;;;23.60;87.90;;;;;;4956989;28;19959;-72
2022/09/16 00:58:49;;;;;;;;;;;23.50;88.70;;;;;;4945045;28;19918;-69
2022/09/16 01:01:15;;;;;;;;;;;23.60;88.00;;;;;;4956499;29;20025;-68
2022/09/16 01:03:54;;;;;;;;;;;23.50;88.40;;;;;;4957050;28;20356;-69
2022/09/16 01:06:20;;;;;;;;;;;23.50;88.60;;;;;;4956743;28;19910;-67
2022/09/16 01:08:48;;;;;;;;;;;23.50;88.50;;;;;;4956929;28;20330;-68
2022/09/16 01:11:13;;;;;;;;;;;23.50;89.60;;;;;;4956755;28;19914;-67
2022/09/16 01:13:39;;;;;;;;;;;23.50;88.50;;;;;;4956849;28;19911;-67
2022/09/16 01:16:08;;;;;;;;;;;23.50;88.20;;;;;;4956762;28;19911;-66
2022/09/16 01:18:42;;;;;;;;;;;23.60;87.90;;;;;;4956661;28;19914;-67
2022/09/16 01:21:08;;;;;;;;;;;23.60;87.50;;;;;;4956616;28;19911;-66
2022/09/16 01:23:49;;;;;;;;;;;23.60;87.90;;;;;;4945816;28;19922;-66
2022/09/16 01:26:17;;;;;;;;;;;23.60;87.70;;;;;;4956479;28;19916;-66
2022/09/16 01:28:48;;;;;;;;;;;23.60;87.80;;;;;;4956712;28;19914;-66
2022/09/16 01:31:19;;;;;;;;;;;23.60;87.90;;;;;;4956346;28;19997;-66
2022/09/16 01:33:45;;;;;;;;;;;23.60;87.70;;;;;;4956389;28;19914;-67
2022/09/16 01:36:19;;;;;;;;;;;23.70;87.60;;;;;;4956413;28;19918;-68
2022/09/16 01:39:17;;;;;;;;;;;23.70;87.70;;;;;;4956251;28;19915;-65
2022/09/16 01:41:58;;;;;;;;;;;23.60;88.10;;;;;;4934051;28;19915;-67
2022/09/16 01:44:39;;;;;;;;;;;23.50;88.70;;;;;;4956264;28;19923;-67
2022/09/16 01:47:04;;;;;;;;;;;23.50;88.70;;;;;;4956027;28;19911;-66
2022/09/16 01:49:53;;;;;;;;;;;23.50;89.10;;;;;;4956230;28;19917;-67
2022/09/16 01:52:18;;;;;;;;;;;23.50;89.20;;;;;;4955857;28;20013;-67
2022/09/16 01:54:48;;;;;;;;;;;23.50;89.40;;;;;;4943821;28;20017;-66
2022/09/16 01:57:18;;;;;;;;;;;23.50;89.60;;;;;;4955400;28;19915;-65
2022/09/16 01:59:47;;;;;;;;;;;23.60;89.30;;;;;;4943253;28;20274;-66
2022/09/16 02:02:13;;;;;;;;;;;23.60;89.40;;;;;;4955992;28;20005;-66
2022/09/16 02:04:42;;;;;;;;;;;23.60;89.10;;;;;;4956177;28;20419;-66
2022/09/16 02:07:09;;;;;;;;;;;23.70;89.00;;;;;;4956026;28;20020;-65
2022/09/16 02:09:38;;;;;;;;;;;23.60;88.90;;;;;;4955903;28;19910;-67
2022/09/16 02:12:08;;;;;;;;;;;23.60;88.90;;;;;;4955908;28;19914;-68
2022/09/16 02:14:37;;;;;;;;;;;23.70;88.80;;;;;;4955886;28;19932;-67
2022/09/16 02:17:05;;;;;;;;;;;23.70;88.40;;;;;;4956023;28;19946;-65
2022/09/16 02:19:38;;;;;;;;;;;23.70;89.00;;;;;;4955746;28;19911;-67
2022/09/16 02:22:06;;;;;;;;;;;23.60;88.80;;;;;;4955858;28;20051;-65
2022/09/16 02:24:32;;;;;;;;;;;23.60;89.00;;;;;;4943678;28;20270;-66
2022/09/16 02:27:02;;;;;;;;;;;23.60;88.90;;;;;;4955588;28;20247;-67
2022/09/16 02:29:32;;;;;;;;;;;23.60;89.10;;;;;;4955712;28;19937;-66
2022/09/16 02:31:59;;;;;;;;;;;23.60;89.00;;;;;;4955684;28;19914;-68
2022/09/16 02:34:28;;;;;;;;;;;23.60;89.00;;;;;;4955521;28;20386;-68
2022/09/16 02:36:56;;;;;;;;;;;23.60;88.80;;;;;;4955272;28;20405;-67
2022/09/16 02:39:26;;;;;;;;;;;23.70;88.50;;;;;;4944447;28;19973;-67
2022/09/16 02:41:54;;;;;;;;;;;23.70;88.10;;;;;;4953559;29;19930;-67
2022/09/16 02:44:19;;;;;;;;;;;23.70;88.10;;;;;;4955239;28;19962;-65
2022/09/16 02:47:14;;;;;;;;;;;23.70;88.00;;;;;;4955317;28;19958;-66
2022/09/16 02:49:52;;;;;;;;;;;23.70;88.00;;;;;;4919476;28;20325;-67
2022/09/16 02:52:37;;;;;;;;;;;23.70;87.80;;;;;;4955033;28;19926;-67
2022/09/16 02:55:33;;;;;;;;;;;23.70;87.50;;;;;;4940368;29;19914;-66
2022/09/16 02:57:58;;;;;;;;;;;23.70;87.60;;;;;;4939813;28;20035;-66
2022/09/16 03:00:24;;;;;;;;;;;23.70;87.70;;;;;;4948127;29;19949;-65
2022/09/16 03:02:50;;;;;;;;;;;23.70;87.60;;;;;;4955033;28;19981;-67
2022/09/16 03:05:15;;;;;;;;;;;23.70;87.70;;;;;;4954968;28;20290;-66
2022/09/16 03:07:41;;;;;;;;;;;23.70;87.50;;;;;;4954847;28;19919;-68
2022/09/16 03:10:13;;;;;;;;;;;23.70;87.30;;;;;;4954906;28;19948;-66
2022/09/16 03:12:57;;;;;;;;;;;23.70;87.10;;;;;;4954326;28;19922;-67
2022/09/16 03:15:22;;;;;;;;;;;23.70;86.70;;;;;;4955080;28;19925;-66
2022/09/16 03:18:03;;;;;;;;;;;23.70;86.60;;;;;;4954610;28;20001;-68
2022/09/16 03:20:41;;;;;;;;;;;23.80;86.50;;;;;;4954785;28;20281;-67
2022/09/16 03:23:06;;;;;;;;;;;23.80;86.30;;;;;;4939040;28;20286;-67
2022/09/16 03:25:47;;;;;;;;;;;23.70;86.10;;;;;;4954674;28;19915;-67
2022/09/16 03:28:15;;;;;;;;;;;23.80;85.70;;;;;;4954363;28;20370;-66
2022/09/16 03:30:54;;;;;;;;;;;23.80;85.70;;;;;;4954525;28;19953;-66
2022/09/16 03:33:26;;;;;;;;;;;23.80;85.70;;;;;;4954296;28;20355;-66
2022/09/16 03:35:54;;;;;;;;;;;23.80;85.50;;;;;;4954558;28;20371;-66
2022/09/16 03:38:20;;;;;;;;;;;23.70;85.70;;;;;;4954206;28;19914;-67
2022/09/16 03:40:46;;;;;;;;;;;23.70;85.90;;;;;;4954395;28;19918;-65
2022/09/16 03:43:14;;;;;;;;;;;23.70;86.00;;;;;;4954155;28;20454;-66
2022/09/16 03:45:41;;;;;;;;;;;23.70;86.00;;;;;;4954473;28;19910;-67
2022/09/16 03:48:07;;;;;;;;;;;23.60;86.00;;;;;;4954212;28;20340;-67
2022/09/16 03:50:33;;;;;;;;;;;23.70;86.30;;;;;;4954081;28;19922;-66
2022/09/16 03:52:59;;;;;;;;;;;23.70;86.50;;;;;;4939058;28;20355;-68
2022/09/16 03:55:24;;;;;;;;;;;23.70;86.10;;;;;;4954090;28;20013;-66
2022/09/16 03:57:51;;;;;;;;;;;23.70;86.30;;;;;;4948682;28;20386;-67
2022/09/16 04:00:17;;;;;;;;;;;23.70;86.20;;;;;;4961069;28;19914;-68
2022/09/16 04:02:42;;;;;;;;;;;23.70;86.20;;;;;;4954112;28;20274;-66
2022/09/16 04:05:08;;;;;;;;;;;23.60;86.50;;;;;;4954187;28;19911;-66
2022/09/16 04:07:34;;;;;;;;;;;23.60;86.60;;;;;;4953904;28;19915;-65
2022/09/16 04:10:00;;;;;;;;;;;23.70;86.70;;;;;;4954177;28;20384;-67
2022/09/16 04:12:26;;;;;;;;;;;23.60;86.70;;;;;;4954151;28;19911;-66
2022/09/16 04:14:52;;;;;;;;;;;23.60;86.40;;;;;;4953975;28;19915;-68
2022/09/16 04:17:17;;;;;;;;;;;23.70;86.50;;;;;;4954003;28;20001;-68
2022/09/16 04:19:43;;;;;;;;;;;23.70;86.50;;;;;;4952770;28;19930;-67
2022/09/16 04:22:08;;;;;;;;;;;23.60;86.70;;;;;;4954148;28;19917;-67
2022/09/16 04:24:34;;;;;;;;;;;23.60;87.10;;;;;;4939738;28;19918;-67
2022/09/16 04:27:00;;;;;;;;;;;23.60;87.00;;;;;;4957778;28;20459;-67
2022/09/16 04:29:26;;;;;;;;;;;23.60;86.80;;;;;;4957741;28;19993;-67
2022/09/16 04:31:52;;;;;;;;;;;23.60;86.70;;;;;;4957674;28;19911;-66
2022/09/16 04:34:18;;;;;;;;;;;23.60;86.80;;;;;;4957686;28;19915;-67
2022/09/16 04:36:44;;;;;;;;;;;23.60;86.60;;;;;;4957589;28;19918;-67
2022/09/16 04:39:11;;;;;;;;;;;23.60;86.50;;;;;;4957716;28;19965;-68
2022/09/16 04:41:36;;;;;;;;;;;23.60;86.70;;;;;;4957350;28;19922;-66
2022/09/16 04:44:02;;;;;;;;;;;23.60;86.80;;;;;;4957475;28;19922;-67
2022/09/16 04:46:28;;;;;;;;;;;23.60;86.80;;;;;;4957420;28;19910;-66
2022/09/16 04:48:54;;;;;;;;;;;23.50;87.00;;;;;;4957636;28;20351;-68
2022/09/16 04:51:21;;;;;;;;;;;23.50;87.10;;;;;;4957182;28;19934;-66
2022/09/16 04:53:47;;;;;;;;;;;23.60;87.30;;;;;;4945637;28;19914;-67
2022/09/16 04:56:17;;;;;;;;;;;23.50;87.30;;;;;;4957399;28;19919;-68
2022/09/16 04:58:45;;;;;;;;;;;23.50;87.60;;;;;;4944482;28;20001;-66
2022/09/16 05:01:12;;;;;;;;;;;23.50;87.50;;;;;;4956244;29;19947;-67
2022/09/16 05:03:38;;;;;;;;;;;23.50;87.50;;;;;;4957140;28;19926;-67
2022/09/16 05:06:05;;;;;;;;;;;23.50;87.40;;;;;;4957012;28;19914;-68
2022/09/16 05:08:34;;;;;;;;;;;23.60;87.40;;;;;;4956991;28;19950;-67
2022/09/16 05:11:03;;;;;;;;;;;23.50;87.20;;;;;;4956774;28;20010;-66
2022/09/16 05:13:29;;;;;;;;;;;23.50;87.70;;;;;;4955707;28;20017;-69
2022/09/16 05:15:54;;;;;;;;;;;23.50;87.10;;;;;;4956759;28;20010;-67
2022/09/16 05:18:20;;;;;;;;;;;23.50;86.90;;;;;;4956741;28;19942;-66
2022/09/16 05:20:45;;;;;;;;;;;23.40;86.70;;;;;;4956861;28;19911;-68
2022/09/16 05:23:11;;;;;;;;;;;23.50;86.60;;;;;;4946448;28;19930;-68
2022/09/16 05:25:36;;;;;;;;;;;23.50;86.40;;;;;;4956745;28;20370;-67
2022/09/16 05:28:02;;;;;;;;;;;23.50;86.10;;;;;;4956508;28;20372;-68
2022/09/16 05:30:27;;;;;;;;;;;23.50;86.10;;;;;;4956678;28;19968;-68
2022/09/16 05:32:54;;;;;;;;;;;23.50;86.10;;;;;;4956767;28;20359;-66
2022/09/16 05:35:19;;;;;;;;;;;23.50;86.00;;;;;;4956255;28;20007;-67
2022/09/16 05:37:45;;;;;;;;;;;23.50;86.10;;;;;;4956508;28;19915;-66
2022/09/16 05:40:10;;;;;;;;;;;23.50;86.00;;;;;;4956247;28;19966;-67
2022/09/16 05:42:36;;;;;;;;;;;23.60;85.80;;;;;;4956328;28;19930;-67
2022/09/16 05:45:01;;;;;;;;;;;23.60;85.40;;;;;;4956224;28;20375;-67
2022/09/16 05:47:27;;;;;;;;;;;23.60;85.20;;;;;;4956342;28;19911;-67
2022/09/16 05:49:53;;;;;;;;;;;23.60;85.00;;;;;;4956299;28;19918;-68
2022/09/16 05:52:19;;;;;;;;;;;23.60;84.70;;;;;;4956099;28;19962;-67
2022/09/16 05:54:44;;;;;;;;;;;23.60;84.10;;;;;;4948139;28;19914;-69
2022/09/16 05:57:10;;;;;;;;;;;23.60;84.30;;;;;;4955794;29;20259;-67
2022/09/16 05:59:35;;;;;;;;;;;23.60;84.20;;;;;;4942662;29;19914;-70
2022/09/16 06:02:01;;;;;;;;;;;23.60;84.10;;;;;;4956071;28;19910;-68
2022/09/16 06:04:26;;;;;;;;;;;23.60;84.30;;;;;;4955814;28;19925;-66
2022/09/16 06:06:52;;;;;;;;;;;23.70;84.10;;;;;;4956231;28;20325;-71
2022/09/16 06:09:21;;;;;;;;;;;23.80;84.10;;;;;;4955683;28;20259;-72
2022/09/16 06:11:48;;;;;;;;;;;23.80;83.70;;;;;;4955734;28;19930;-67
2022/09/16 06:14:14;;;;;;;;;;;23.80;83.80;;;;;;4955520;28;19958;-67
2022/09/16 06:16:40;;;;;;;;;;;23.80;83.90;;;;;;4955413;28;19917;-71
2022/09/16 06:19:09;;;;;;;;;;;23.90;84.00;;;;;;4970312;28;20006;-67
2022/09/16 06:21:35;;;;;;;;;;;23.90;83.80;;;;;;4955457;28;19911;-67
2022/09/16 06:24:02;;;;;;;;;;;24.00;83.70;;;;;;4949516;28;19925;-66
2022/09/16 06:26:27;;;;;;;;;;;24.00;83.40;;;;;;4955863;28;19911;-65
2022/09/16 06:28:54;;;;;;;;;;;24.00;83.10;;;;;;4955392;28;20351;-68
2022/09/16 06:31:24;;;;;;;;;;;24.10;82.90;;;;;;4955310;28;20433;-66
2022/09/16 06:33:49;;;;;;;;;;;24.10;83.60;;;;;;4955565;28;19911;-67
2022/09/16 06:36:16;;;;;;;;;;;24.00;82.50;;;;;;4955543;28;19922;-67
2022/09/16 06:38:43;;;;;;;;;;;24.10;82.60;;;;;;4955327;28;19939;-68
2022/09/16 06:41:09;;;;;;;;;;;24.00;83.20;;;;;;4955175;28;20009;-70
2022/09/16 06:43:35;;;;;;;;;;;23.90;83.40;;;;;;4955049;28;20062;-67
2022/09/16 06:46:05;;;;;;;;;;;23.80;83.30;;;;;;4927935;28;20014;-68
2022/09/16 06:48:32;;;;;;;;;;;23.80;83.50;;;;;;4932756;29;19958;-66
2022/09/16 06:51:02;;;;;;;;;;;23.90;83.40;;;;;;4934912;29;19923;-68
2022/09/16 06:53:28;;;;;;;;;;;23.90;83.10;;;;;;4922816;29;19969;-66
2022/09/16 06:55:54;;;;;;;;;;;24.00;83.00;;;;;;4916803;29;19918;-65
2022/09/16 06:58:20;;;;;;;;;;;23.90;83.20;;;;;;4943238;29;20266;-68
2022/09/16 07:00:46;;;;;;;;;;;24.00;83.20;;;;;;4950919;28;19911;-69
2022/09/16 07:03:11;;;;;;;;;;;24.00;82.90;;;;;;4955141;28;19918;-67
2022/09/16 07:05:37;;;;;;;;;;;24.00;82.70;;;;;;4955140;28;20297;-64
2022/09/16 07:08:02;;;;;;;;;;;23.90;82.50;;;;;;4954916;28;20021;-67
2022/09/16 07:10:29;;;;;;;;;;;23.80;82.40;;;;;;4955093;28;19914;-68
2022/09/16 07:12:55;;;;;;;;;;;23.80;82.80;;;;;;4954889;28;19914;-67
2022/09/16 07:15:20;;;;;;;;;;;23.70;81.90;;;;;;4926903;28;19915;-71
2022/09/16 07:17:46;;;;;;;;;;;23.70;81.70;;;;;;4916111;29;20367;-68
2022/09/16 07:20:11;;;;;;;;;;;23.60;81.10;;;;;;4915894;29;20013;-68
2022/09/16 07:22:37;;;;;;;;;;;23.50;81.20;;;;;;4915985;29;19964;-69
2022/09/16 07:25:03;;;;;;;;;;;23.60;80.30;;;;;;4903173;29;19994;-68
2022/09/16 07:27:28;;;;;;;;;;;23.50;80.70;;;;;;4932604;29;19922;-66
2022/09/16 07:29:55;;;;;;;;;;;23.50;80.20;;;;;;4954503;28;19934;-66
2022/09/16 07:32:21;;;;;;;;;;;23.50;79.30;;;;;;4952471;28;20441;-66
2022/09/16 07:34:46;;;;;;;;;;;23.40;80.00;;;;;;4951290;29;19911;-68
2022/09/16 07:37:12;;;;;;;;;;;23.40;79.30;;;;;;4954512;28;20009;-66
2022/09/16 07:39:38;;;;;;;;;;;23.50;79.20;;;;;;4954344;28;19969;-66
2022/09/16 07:42:03;;;;;;;;;;;23.50;78.60;;;;;;4947787;28;19968;-65
2022/09/16 07:44:29;;;;;;;;;;;23.40;78.40;;;;;;4933794;29;19927;-68
2022/09/16 07:46:54;;;;;;;;;;;23.30;79.10;;;;;;4948980;28;19919;-69
2022/09/16 07:49:20;;;;;;;;;;;23.10;79.50;;;;;;4931515;29;19918;-64
2022/09/16 07:51:46;;;;;;;;;;;23.20;79.70;;;;;;4924809;29;19923;-63
2022/09/16 07:54:13;;;;;;;;;;;23.30;78.80;;;;;;4900976;29;20240;-65
2022/09/16 07:56:39;;;;;;;;;;;23.50;78.60;;;;;;4930047;29;19958;-70
2022/09/16 07:59:06;;;;;;;;;;;23.70;77.60;;;;;;4922919;29;19922;-74
2022/09/16 08:01:32;;;;;;;;;;;23.80;77.30;;;;;;4915389;29;19998;-72
2022/09/16 08:03:58;;;;;;;;;;;23.60;77.00;;;;;;4915140;29;20029;-70
2022/09/16 08:06:25;;;;;;;;;;;23.50;76.90;;;;;;4915908;29;19922;-65
2022/09/16 08:08:52;;;;;;;;;;;23.30;77.20;;;;;;4915596;29;19915;-70
2022/09/16 08:11:18;;;;;;;;;;;23.10;77.80;;;;;;4947298;29;20378;-73
2022/09/16 08:13:45;;;;;;;;;;;23.20;77.60;;;;;;4933895;29;21016;-69
2022/09/16 08:16:14;;;;;;;;;;;23.30;77.40;;;;;;4933763;28;19910;-71
2022/09/16 08:18:41;;;;;;;;;;;23.40;77.80;;;;;;4928412;28;19911;-69
2022/09/16 08:21:21;;;;;;;;;;;23.60;77.60;;;;;;4918400;29;19911;-71
2022/09/16 08:23:46;;;;;;;;;;;23.60;76.30;;;;;;4944683;28;19922;-70
2022/09/16 08:26:13;;;;;;;;;;;23.80;75.90;;;;;;4953979;28;20298;-72
2022/09/16 08:28:40;;;;;;;;;;;23.90;75.80;;;;;;4953716;28;19918;-72
2022/09/16 08:31:05;;;;;;;;;;;24.00;75.50;;;;;;4953798;28;20370;-72
2022/09/16 08:33:31;;;;;;;;;;;24.20;76.10;;;;;;4953753;28;19917;-72
2022/09/16 08:36:00;;;;;;;;;;;24.20;74.40;;;;;;4953713;28;19910;-71
2022/09/16 08:38:26;;;;;;;;;;;24.40;74.10;;;;;;4953879;28;19923;-75
2022/09/16 08:40:54;;;;;;;;;;;24.50;73.50;;;;;;4953718;28;19915;-74
2022/09/16 08:43:23;;;;;;;;;;;24.60;73.20;;;;;;4953673;28;20369;-71
2022/09/16 08:45:53;;;;;;;;;;;24.70;73.10;;;;;;4953362;28;19911;-69
2022/09/16 08:48:48;;;;;;;;;;;24.60;73.20;;;;;;4953759;28;20262;-67
2022/09/16 08:54:22;;;;;;;;;;;24.40;73.90;;;;;;4893461;29;19934;-60
2022/09/16 08:56:48;;;;;;;;;;;24.30;74.10;;;;;;4893965;29;19928;-63
2022/09/16 08:59:17;;;;;;;;;;;24.20;74.90;;;;;;4893879;29;20355;-66
2022/09/16 09:01:51;;;;;;;;;;;23.80;74.70;;;;;;4893969;29;20051;-64
2022/09/16 09:04:17;;;;;;;;;;;23.60;76.90;;;;;;4890624;29;19924;-74
2022/09/16 09:07:01;;;;;;;;;;;23.40;76.60;;;;;;4893187;29;20291;-65
2022/09/16 09:09:45;;;;;;;;;;;23.30;77.40;;;;;;4876764;29;19912;-66
2022/09/16 09:12:11;;;;;;;;;;;23.40;77.90;;;;;;4895547;29;20306;-66
2022/09/16 09:14:55;;;;;;;;;;;23.30;77.70;;;;;;4896463;29;19915;-66
2022/09/16 09:17:23;;;;;;;;;;;23.20;76.60;;;;;;4896416;29;19972;-61
2022/09/16 09:19:51;;;;;;;;;;;23.00;75.80;;;;;;4896367;29;19912;-70
2022/09/16 09:22:35;;;;;;;;;;;22.70;77.00;;;;;;4896466;29;20359;-72
2022/09/16 09:25:15;;;;;;;;;;;22.60;77.70;;;;;;4893607;29;19934;-70
2022/09/16 09:27:47;;;;;;;;;;;22.60;78.10;;;;;;4914277;29;19914;-69
2022/09/16 09:30:21;;;;;;;;;;;22.60;78.50;;;;;;4936549;29;19922;-68
2022/09/16 09:32:53;;;;;;;;;;;22.20;80.70;;;;;;4936279;29;20560;-65
2022/09/16 09:35:33;;;;;;;;;;;21.80;81.70;;;;;;4936521;29;19965;-67
2022/09/16 09:38:05;;;;;;;;;;;21.70;83.00;;;;;;4946987;29;20433;-65
2022/09/16 09:40:34;;;;;;;;;;;21.90;83.80;;;;;;4939759;28;19911;-65
2022/09/16 09:43:03;;;;;;;;;;;22.00;83.90;;;;;;4936466;29;19986;-68
2022/09/16 09:45:32;;;;;;;;;;;22.00;84.20;;;;;;4918495;29;20430;-67
2022/09/16 09:48:00;;;;;;;;;;;22.10;84.80;;;;;;4933394;29;19919;-69
2022/09/16 09:50:32;;;;;;;;;;;22.30;85.10;;;;;;4919548;29;20287;-69
2022/09/16 09:53:10;;;;;;;;;;;22.40;84.90;;;;;;4922332;29;19974;-66
2022/09/16 09:55:35;;;;;;;;;;;22.60;81.50;;;;;;4936015;29;19926;-70
